createdAt,value
2022-12-31T00:00:16.996Z,12.46
2022-12-31T00:01:16.943Z,12.46
2022-12-31T00:02:17.022Z,12.43
2022-12-31T00:03:17.081Z,12.47
2022-12-31T00:04:17.069Z,12.46
2022-12-31T00:05:16.965Z,12.44
2022-12-31T00:06:16.909Z,12.46
2022-12-31T00:07:17.056Z,12.46
2022-12-31T00:08:17.200Z,12.47
2022-12-31T00:09:16.843Z,12.46
2022-12-31T00:10:16.858Z,12.48
2022-12-31T00:11:16.825Z,12.46
2022-12-31T00:12:16.862Z,12.47
2022-12-31T00:13:16.808Z,12.48
2022-12-31T00:14:16.825Z,12.47
2022-12-31T00:15:16.780Z,12.46
2022-12-31T00:16:16.789Z,12.47
2022-12-31T00:17:16.791Z,12.47
2022-12-31T00:18:16.798Z,12.47
2022-12-31T00:19:16.748Z,12.53
2022-12-31T00:20:16.756Z,12.58
2022-12-31T00:21:16.713Z,12.61
2022-12-31T00:22:16.760Z,12.61
2022-12-31T00:23:16.695Z,12.61
2022-12-31T00:24:16.716Z,12.59
2022-12-31T00:25:16.694Z,12.62
2022-12-31T00:26:16.689Z,12.62
2022-12-31T00:27:16.665Z,12.62
2022-12-31T00:28:16.654Z,12.62
2022-12-31T00:29:16.714Z,12.62
2022-12-31T00:30:16.655Z,12.61
2022-12-31T00:31:16.650Z,12.61
2022-12-31T00:32:16.622Z,12.62
2022-12-31T00:33:16.848Z,12.62
2022-12-31T00:34:16.618Z,12.62
2022-12-31T00:35:16.634Z,12.59
2022-12-31T00:36:16.581Z,12.61
2022-12-31T00:37:16.574Z,12.61
2022-12-31T00:38:16.546Z,12.62
2022-12-31T00:39:16.599Z,12.62
2022-12-31T00:40:16.522Z,12.62
2022-12-31T00:41:16.579Z,12.61
2022-12-31T00:42:16.520Z,12.59
2022-12-31T00:43:16.605Z,12.59
2022-12-31T00:44:16.497Z,12.58
2022-12-31T00:45:16.489Z,12.61
2022-12-31T00:46:16.544Z,12.63
2022-12-31T00:47:16.481Z,12.63
2022-12-31T00:48:16.507Z,12.66
2022-12-31T00:49:16.447Z,12.66
2022-12-31T00:50:16.451Z,12.66
2022-12-31T00:51:16.401Z,12.65
2022-12-31T00:52:16.411Z,12.65
2022-12-31T00:53:16.407Z,12.63
2022-12-31T00:54:16.684Z,12.63
2022-12-31T00:55:16.512Z,12.63
2022-12-31T00:56:16.537Z,12.61
2022-12-31T00:57:16.655Z,12.65
2022-12-31T00:58:16.467Z,12.62
2022-12-31T00:59:16.339Z,12.63
2022-12-31T01:00:16.367Z,12.61
2022-12-31T01:01:16.594Z,12.61
2022-12-31T01:02:16.567Z,12.55
2022-12-31T01:03:16.320Z,12.61
2022-12-31T01:04:16.287Z,12.59
2022-12-31T01:05:16.294Z,12.61
2022-12-31T01:06:16.281Z,12.61
2022-12-31T01:07:16.275Z,12.63
2022-12-31T01:08:16.266Z,12.61
2022-12-31T01:09:16.235Z,12.61
2022-12-31T01:10:16.242Z,12.63
2022-12-31T01:11:16.203Z,12.63
2022-12-31T01:12:16.191Z,12.65
2022-12-31T01:13:16.196Z,12.66
2022-12-31T01:14:16.205Z,12.66
2022-12-31T01:15:16.163Z,12.65
2022-12-31T01:16:16.249Z,12.65
2022-12-31T01:17:16.144Z,12.63
2022-12-31T01:18:16.192Z,12.62
2022-12-31T01:19:16.136Z,12.62
2022-12-31T01:20:16.316Z,12.62
2022-12-31T01:21:16.107Z,12.62
2022-12-31T01:22:16.110Z,12.63
2022-12-31T01:23:16.141Z,12.62
2022-12-31T01:24:16.087Z,12.62
2022-12-31T01:25:16.083Z,12.62
2022-12-31T01:26:16.075Z,12.62
2022-12-31T01:27:16.036Z,12.62
2022-12-31T01:28:16.027Z,12.62
2022-12-31T01:29:16.035Z,12.61
2022-12-31T01:30:16.049Z,12.55
2022-12-31T01:31:16.051Z,12.55
2022-12-31T01:32:16.017Z,12.54
2022-12-31T01:33:15.988Z,12.54
2022-12-31T01:34:15.990Z,12.54
2022-12-31T01:35:15.944Z,12.53
2022-12-31T01:36:19.028Z,12.50
2022-12-31T01:37:15.964Z,12.48
2022-12-31T01:38:15.981Z,12.50
2022-12-31T01:39:15.962Z,12.51
2022-12-31T01:40:15.932Z,12.53
2022-12-31T01:41:15.961Z,12.51
2022-12-31T01:42:15.891Z,12.55
2022-12-31T01:43:15.898Z,12.59
2022-12-31T01:44:15.878Z,12.61
2022-12-31T01:45:15.865Z,12.61
2022-12-31T01:46:15.897Z,12.59
2022-12-31T01:47:15.828Z,12.59
2022-12-31T01:48:15.857Z,12.58
2022-12-31T01:49:15.877Z,12.54
2022-12-31T01:50:15.820Z,12.54
2022-12-31T01:51:15.795Z,12.53
2022-12-31T01:52:15.817Z,12.54
2022-12-31T01:53:15.774Z,12.58
2022-12-31T01:54:15.774Z,12.58
2022-12-31T01:55:15.883Z,12.59
2022-12-31T01:56:15.777Z,12.62
2022-12-31T01:57:15.749Z,12.63
2022-12-31T01:58:15.761Z,12.65
2022-12-31T01:59:15.704Z,12.63
2022-12-31T02:00:15.739Z,12.62
2022-12-31T02:01:15.859Z,12.65
2022-12-31T02:02:15.744Z,12.65
2022-12-31T02:03:15.737Z,12.65
2022-12-31T02:04:15.676Z,12.66
2022-12-31T02:05:20.927Z,12.68
2022-12-31T02:06:22.303Z,12.68
2022-12-31T02:07:15.665Z,12.71
2022-12-31T02:08:16.561Z,12.71
2022-12-31T02:09:15.610Z,12.71
2022-12-31T02:10:15.597Z,12.69
2022-12-31T02:11:15.588Z,12.68
2022-12-31T02:12:15.584Z,12.69
2022-12-31T02:13:15.567Z,12.71
2022-12-31T02:14:15.850Z,12.68
2022-12-31T02:15:15.595Z,12.68
2022-12-31T02:16:15.643Z,12.66
2022-12-31T02:17:15.559Z,12.66
2022-12-31T02:18:15.549Z,12.65
2022-12-31T02:19:15.505Z,12.68
2022-12-31T02:20:15.501Z,12.69
2022-12-31T02:21:15.488Z,12.71
2022-12-31T02:22:15.479Z,12.73
2022-12-31T02:23:15.497Z,12.73
2022-12-31T02:24:15.476Z,12.76
2022-12-31T02:25:15.430Z,12.73
2022-12-31T02:26:15.495Z,12.77
2022-12-31T02:27:15.511Z,12.76
2022-12-31T02:28:15.415Z,12.73
2022-12-31T02:29:15.428Z,12.71
2022-12-31T02:30:15.444Z,12.66
2022-12-31T02:31:16.958Z,12.66
2022-12-31T02:32:15.376Z,12.66
2022-12-31T02:33:15.368Z,12.66
2022-12-31T02:34:15.394Z,12.65
2022-12-31T02:35:15.415Z,12.63
2022-12-31T02:36:15.336Z,12.61
2022-12-31T02:37:15.331Z,12.58
2022-12-31T02:38:23.009Z,12.58
2022-12-31T02:39:15.305Z,12.55
2022-12-31T02:40:15.311Z,12.54
2022-12-31T02:41:15.368Z,12.51
2022-12-31T02:42:15.268Z,12.51
2022-12-31T02:43:15.264Z,12.48
2022-12-31T02:44:15.244Z,12.46
2022-12-31T02:45:15.264Z,12.43
2022-12-31T02:46:15.310Z,12.40
2022-12-31T02:47:15.209Z,12.40
2022-12-31T02:48:15.223Z,12.36
2022-12-31T02:49:15.206Z,12.35
2022-12-31T02:50:15.261Z,12.33
2022-12-31T02:51:15.202Z,12.32
2022-12-31T02:52:15.206Z,12.30
2022-12-31T02:53:15.177Z,12.32
2022-12-31T02:54:15.222Z,12.33
2022-12-31T02:55:15.148Z,12.35
2022-12-31T02:56:15.345Z,12.35
2022-12-31T02:57:15.176Z,12.35
2022-12-31T02:58:15.105Z,12.33
2022-12-31T02:59:15.106Z,12.32
2022-12-31T03:00:15.152Z,12.32
2022-12-31T03:01:15.173Z,12.33
2022-12-31T03:02:15.286Z,12.32
2022-12-31T03:03:15.041Z,12.32
2022-12-31T03:04:15.045Z,12.35
2022-12-31T03:05:15.033Z,12.30
2022-12-31T03:06:15.026Z,12.30
2022-12-31T03:07:15.021Z,12.29
2022-12-31T03:08:14.989Z,12.28
2022-12-31T03:09:15.001Z,12.28
2022-12-31T03:10:15.050Z,12.25
2022-12-31T03:11:15.043Z,12.23
2022-12-31T03:12:14.979Z,12.22
2022-12-31T03:13:14.945Z,12.17
2022-12-31T03:14:15.129Z,12.17
2022-12-31T03:15:14.922Z,12.14
2022-12-31T03:16:14.975Z,12.13
2022-12-31T03:17:14.901Z,12.11
2022-12-31T03:18:14.897Z,12.10
2022-12-31T03:19:14.895Z,12.08
2022-12-31T03:20:14.945Z,12.07
2022-12-31T03:21:14.889Z,12.05
2022-12-31T03:22:14.854Z,12.04
2022-12-31T03:23:14.848Z,12.03
2022-12-31T03:24:14.875Z,11.97
2022-12-31T03:25:14.865Z,11.96
2022-12-31T03:26:14.852Z,11.89
2022-12-31T03:27:14.807Z,11.88
2022-12-31T03:28:14.793Z,11.85
2022-12-31T03:29:14.790Z,11.84
2022-12-31T03:30:14.775Z,11.82
2022-12-31T03:31:14.794Z,11.77
2022-12-31T03:32:14.769Z,11.79
2022-12-31T03:33:14.750Z,11.76
2022-12-31T03:34:14.716Z,11.74
2022-12-31T03:35:14.756Z,11.73
2022-12-31T03:36:14.753Z,11.73
2022-12-31T03:37:14.748Z,11.73
2022-12-31T03:38:14.695Z,11.70
2022-12-31T03:39:14.693Z,11.70
2022-12-31T03:40:14.754Z,11.69
2022-12-31T03:41:14.790Z,11.67
2022-12-31T03:42:14.720Z,11.66
2022-12-31T03:43:14.889Z,11.67
2022-12-31T03:44:14.646Z,11.66
2022-12-31T03:45:14.622Z,11.66
2022-12-31T03:46:14.642Z,11.64
2022-12-31T03:47:14.601Z,11.62
2022-12-31T03:48:14.609Z,11.62
2022-12-31T03:49:14.642Z,11.61
2022-12-31T03:50:14.699Z,11.58
2022-12-31T03:51:14.788Z,11.58
2022-12-31T03:52:14.607Z,11.58
2022-12-31T03:53:14.633Z,11.56
2022-12-31T03:54:14.530Z,11.54
2022-12-31T03:55:14.528Z,11.52
2022-12-31T03:56:14.508Z,11.52
2022-12-31T03:57:14.491Z,11.54
2022-12-31T03:58:14.490Z,11.52
2022-12-31T03:59:14.506Z,11.51
2022-12-31T04:00:14.559Z,11.49
2022-12-31T04:01:14.562Z,11.49
2022-12-31T04:02:14.728Z,11.49
2022-12-31T04:03:14.510Z,11.48
2022-12-31T04:04:14.413Z,11.48
2022-12-31T04:05:14.423Z,11.46
2022-12-31T04:06:14.412Z,11.45
2022-12-31T04:07:14.415Z,11.45
2022-12-31T04:08:14.381Z,11.46
2022-12-31T04:09:14.372Z,11.45
2022-12-31T04:10:14.396Z,11.46
2022-12-31T04:11:20.522Z,11.41
2022-12-31T04:12:14.341Z,11.43
2022-12-31T04:13:14.333Z,11.40
2022-12-31T04:14:14.353Z,11.41
2022-12-31T04:15:14.715Z,11.40
2022-12-31T04:16:14.378Z,11.40
2022-12-31T04:17:14.359Z,11.40
2022-12-31T04:18:14.586Z,11.40
2022-12-31T04:19:14.290Z,11.40
2022-12-31T04:20:14.291Z,11.40
2022-12-31T04:21:14.501Z,11.37
2022-12-31T04:22:14.237Z,11.37
2022-12-31T04:23:14.430Z,11.37
2022-12-31T04:24:14.208Z,11.38
2022-12-31T04:25:14.199Z,11.38
2022-12-31T04:26:14.695Z,11.40
2022-12-31T04:27:14.219Z,11.40
2022-12-31T04:28:14.170Z,11.40
2022-12-31T04:29:14.325Z,11.41
2022-12-31T04:30:14.231Z,11.41
2022-12-31T04:31:14.171Z,11.41
2022-12-31T04:32:14.135Z,11.43
2022-12-31T04:33:14.127Z,11.43
2022-12-31T04:34:14.121Z,11.46
2022-12-31T04:35:14.156Z,11.48
2022-12-31T04:36:14.135Z,11.46
2022-12-31T04:37:14.080Z,11.48
2022-12-31T04:38:14.071Z,11.48
2022-12-31T04:39:14.086Z,11.46
2022-12-31T04:40:14.051Z,11.46
2022-12-31T04:41:14.035Z,11.46
2022-12-31T04:42:14.053Z,11.46
2022-12-31T04:43:14.035Z,11.45
2022-12-31T04:44:14.035Z,11.45
2022-12-31T04:45:14.085Z,11.48
2022-12-31T04:46:14.071Z,11.48
2022-12-31T04:47:17.457Z,11.49
2022-12-31T04:48:13.977Z,11.51
2022-12-31T04:49:14.079Z,11.49
2022-12-31T04:50:14.529Z,11.52
2022-12-31T04:51:13.961Z,11.52
2022-12-31T04:52:13.977Z,11.52
2022-12-31T04:53:14.661Z,11.55
2022-12-31T04:54:13.896Z,11.55
2022-12-31T04:55:14.001Z,11.58
2022-12-31T04:56:13.956Z,11.56
2022-12-31T04:57:13.886Z,11.58
2022-12-31T04:58:13.914Z,11.59
2022-12-31T04:59:13.857Z,11.59
2022-12-31T05:00:13.856Z,11.62
2022-12-31T05:01:13.963Z,11.67
2022-12-31T05:02:14.069Z,11.69
2022-12-31T05:03:13.835Z,11.73
2022-12-31T05:04:13.815Z,11.76
2022-12-31T05:05:13.800Z,11.79
2022-12-31T05:06:13.768Z,11.80
2022-12-31T05:07:13.785Z,11.82
2022-12-31T05:08:13.771Z,11.82
2022-12-31T05:09:13.760Z,11.82
2022-12-31T05:10:13.757Z,11.87
2022-12-31T05:11:13.809Z,11.88
2022-12-31T05:12:13.724Z,11.87
2022-12-31T05:13:13.734Z,11.87
2022-12-31T05:14:13.692Z,11.87
2022-12-31T05:15:13.805Z,11.85
2022-12-31T05:16:13.773Z,11.84
2022-12-31T05:17:13.731Z,11.82
2022-12-31T05:18:13.659Z,11.84
2022-12-31T05:19:13.669Z,11.85
2022-12-31T05:20:13.657Z,11.85
2022-12-31T05:21:13.677Z,11.82
2022-12-31T05:22:13.647Z,11.85
2022-12-31T05:23:13.618Z,11.91
2022-12-31T05:24:13.589Z,12.07
2022-12-31T05:25:13.596Z,12.26
2022-12-31T05:26:13.581Z,12.30
2022-12-31T05:27:13.597Z,12.36
2022-12-31T05:28:13.707Z,12.41
2022-12-31T05:29:13.677Z,12.40
2022-12-31T05:30:13.552Z,12.36
2022-12-31T05:31:13.635Z,12.33
2022-12-31T05:32:13.759Z,12.36
2022-12-31T05:33:13.500Z,12.36
2022-12-31T05:34:13.542Z,12.35
2022-12-31T05:35:13.586Z,12.32
2022-12-31T05:36:13.625Z,12.32
2022-12-31T05:37:13.458Z,12.29
2022-12-31T05:38:13.473Z,12.28
2022-12-31T05:39:13.914Z,12.26
2022-12-31T05:40:13.469Z,12.25
2022-12-31T05:41:13.416Z,12.21
2022-12-31T05:42:13.409Z,12.14
2022-12-31T05:43:13.509Z,12.07
2022-12-31T05:44:13.379Z,12.04
2022-12-31T05:45:13.512Z,12.00
2022-12-31T05:46:13.399Z,11.91
2022-12-31T05:47:13.378Z,11.88
2022-12-31T05:48:13.342Z,11.79
2022-12-31T05:49:13.352Z,11.77
2022-12-31T05:50:13.320Z,11.76
2022-12-31T05:51:13.320Z,11.73
2022-12-31T05:52:13.382Z,11.69
2022-12-31T05:53:19.842Z,11.69
2022-12-31T05:54:13.547Z,11.64
2022-12-31T05:55:13.479Z,11.61
2022-12-31T05:56:13.243Z,11.56
2022-12-31T05:57:13.262Z,11.55
2022-12-31T05:58:13.247Z,11.54
2022-12-31T05:59:13.255Z,11.54
2022-12-31T06:00:13.213Z,11.52
2022-12-31T06:01:13.255Z,11.49
2022-12-31T06:02:13.277Z,11.46
2022-12-31T06:03:13.382Z,11.46
2022-12-31T06:04:13.182Z,11.45
2022-12-31T06:05:13.171Z,11.43
2022-12-31T06:06:13.166Z,11.45
2022-12-31T06:07:13.148Z,11.41
2022-12-31T06:08:13.136Z,11.41
2022-12-31T06:09:13.146Z,11.40
2022-12-31T06:10:13.157Z,11.38
2022-12-31T06:11:13.175Z,11.38
2022-12-31T06:12:13.100Z,11.38
2022-12-31T06:13:13.135Z,11.34
2022-12-31T06:14:13.066Z,11.34
2022-12-31T06:15:13.364Z,11.36
2022-12-31T06:16:13.283Z,11.36
2022-12-31T06:17:13.172Z,11.37
2022-12-31T06:18:13.486Z,11.36
2022-12-31T06:19:13.186Z,11.37
2022-12-31T06:20:13.551Z,11.36
2022-12-31T06:21:13.146Z,11.36
2022-12-31T06:22:13.080Z,11.34
2022-12-31T06:23:13.101Z,11.36
2022-12-31T06:24:13.077Z,11.36
2022-12-31T06:25:12.968Z,11.34
2022-12-31T06:26:12.985Z,11.34
2022-12-31T06:27:12.962Z,11.36
2022-12-31T06:28:19.682Z,11.37
2022-12-31T06:29:12.960Z,11.36
2022-12-31T06:30:12.931Z,11.37
2022-12-31T06:31:13.008Z,11.36
2022-12-31T06:32:12.884Z,11.36
2022-12-31T06:33:12.921Z,11.37
2022-12-31T06:34:12.910Z,11.36
2022-12-31T06:35:12.899Z,11.36
2022-12-31T06:36:12.849Z,11.36
2022-12-31T06:37:12.853Z,11.36
2022-12-31T06:38:12.845Z,11.34
2022-12-31T06:39:12.838Z,11.34
2022-12-31T06:40:12.794Z,11.34
2022-12-31T06:41:12.832Z,11.36
2022-12-31T06:42:12.831Z,11.36
2022-12-31T06:43:12.804Z,11.36
2022-12-31T06:44:12.760Z,11.37
2022-12-31T06:45:12.793Z,11.37
2022-12-31T06:46:12.795Z,11.38
2022-12-31T06:47:12.733Z,11.40
2022-12-31T06:48:12.730Z,11.40
2022-12-31T06:49:12.729Z,11.40
2022-12-31T06:50:12.727Z,11.41
2022-12-31T06:51:16.936Z,11.38
2022-12-31T06:52:12.687Z,11.40
2022-12-31T06:53:12.679Z,11.37
2022-12-31T06:54:12.659Z,11.36
2022-12-31T06:55:12.657Z,11.37
2022-12-31T06:56:12.628Z,11.38
2022-12-31T06:57:12.654Z,11.38
2022-12-31T06:58:12.617Z,11.38
2022-12-31T06:59:12.635Z,11.40
2022-12-31T07:00:12.607Z,11.38
2022-12-31T07:01:12.634Z,11.36
2022-12-31T07:02:12.602Z,11.36
2022-12-31T07:03:12.648Z,11.37
2022-12-31T07:04:12.572Z,11.40
2022-12-31T07:05:12.554Z,11.38
2022-12-31T07:06:12.553Z,11.38
2022-12-31T07:07:12.591Z,11.41
2022-12-31T07:08:12.529Z,11.45
2022-12-31T07:09:12.517Z,11.48
2022-12-31T07:10:12.496Z,11.49
2022-12-31T07:11:12.470Z,11.51
2022-12-31T07:12:12.481Z,11.54
2022-12-31T07:13:12.539Z,11.70
2022-12-31T07:14:12.477Z,11.76
2022-12-31T07:15:12.432Z,11.82
2022-12-31T07:16:12.453Z,11.85
2022-12-31T07:17:12.435Z,11.99
2022-12-31T07:18:12.408Z,12.03
2022-12-31T07:19:12.391Z,12.05
2022-12-31T07:20:12.399Z,12.10
2022-12-31T07:21:12.341Z,12.18
2022-12-31T07:22:12.430Z,12.28
2022-12-31T07:23:12.483Z,12.38
2022-12-31T07:24:12.404Z,12.44
2022-12-31T07:25:12.438Z,12.61
2022-12-31T07:26:12.276Z,12.66
2022-12-31T07:27:12.283Z,12.69
2022-12-31T07:28:12.247Z,12.71
2022-12-31T07:29:12.306Z,12.69
2022-12-31T07:30:12.239Z,12.73
2022-12-31T07:31:12.267Z,12.73
2022-12-31T07:32:12.280Z,12.73
2022-12-31T07:33:12.219Z,12.79
2022-12-31T07:34:12.197Z,12.84
2022-12-31T07:35:12.238Z,12.87
2022-12-31T07:36:12.187Z,12.91
2022-12-31T07:37:12.197Z,12.93
2022-12-31T07:38:12.151Z,12.93
2022-12-31T07:39:12.158Z,12.98
2022-12-31T07:40:12.134Z,13.04
2022-12-31T07:41:12.108Z,13.05
2022-12-31T07:42:12.111Z,13.11
2022-12-31T07:43:12.104Z,13.16
2022-12-31T07:44:12.105Z,13.16
2022-12-31T07:45:12.063Z,13.17
2022-12-31T07:46:12.116Z,13.17
2022-12-31T07:47:12.069Z,13.21
2022-12-31T07:48:12.050Z,13.24
2022-12-31T07:49:12.039Z,13.27
2022-12-31T07:50:12.038Z,13.30
2022-12-31T07:51:12.018Z,13.32
2022-12-31T07:52:12.018Z,13.36
2022-12-31T07:53:12.007Z,13.42
2022-12-31T07:54:14.443Z,13.42
2022-12-31T07:55:11.984Z,13.36
2022-12-31T07:56:12.001Z,13.40
2022-12-31T07:57:11.990Z,13.46
2022-12-31T07:58:11.971Z,13.54
2022-12-31T07:59:11.944Z,13.60
2022-12-31T08:00:11.938Z,13.73
2022-12-31T08:01:12.109Z,13.78
2022-12-31T08:02:12.139Z,13.85
2022-12-31T08:03:11.929Z,13.86
2022-12-31T08:04:11.878Z,13.83
2022-12-31T08:05:11.864Z,13.82
2022-12-31T08:06:11.898Z,13.75
2022-12-31T08:07:11.832Z,13.68
2022-12-31T08:08:11.839Z,13.64
2022-12-31T08:09:11.816Z,13.63
2022-12-31T08:10:17.525Z,13.60
2022-12-31T08:11:11.895Z,13.57
2022-12-31T08:12:11.823Z,13.55
2022-12-31T08:13:11.989Z,13.58
2022-12-31T08:14:11.791Z,13.65
2022-12-31T08:15:11.747Z,13.68
2022-12-31T08:16:11.918Z,13.78
2022-12-31T08:17:11.815Z,13.93
2022-12-31T08:18:11.726Z,14.00
2022-12-31T08:19:11.747Z,14.12
2022-12-31T08:20:11.852Z,14.19
2022-12-31T08:21:11.838Z,14.19
2022-12-31T08:22:11.736Z,14.22
2022-12-31T08:23:11.712Z,14.34
2022-12-31T08:24:11.774Z,14.38
2022-12-31T08:25:12.107Z,14.44
2022-12-31T08:26:11.660Z,14.41
2022-12-31T08:27:11.645Z,14.55
2022-12-31T08:28:11.659Z,14.69
2022-12-31T08:29:11.592Z,14.70
2022-12-31T08:30:11.649Z,14.73
2022-12-31T08:31:11.626Z,14.69
2022-12-31T08:32:11.715Z,14.73
2022-12-31T08:33:11.559Z,14.74
2022-12-31T08:34:12.316Z,14.82
2022-12-31T08:35:11.554Z,14.89
2022-12-31T08:36:11.579Z,14.92
2022-12-31T08:37:11.547Z,14.92
2022-12-31T08:38:11.567Z,14.97
2022-12-31T08:39:11.721Z,15.03
2022-12-31T08:40:11.498Z,15.08
2022-12-31T08:41:11.495Z,15.10
2022-12-31T08:42:11.559Z,15.14
2022-12-31T08:43:11.484Z,15.15
2022-12-31T08:44:11.900Z,15.11
2022-12-31T08:45:11.494Z,15.11
2022-12-31T08:46:11.508Z,15.10
2022-12-31T08:47:11.413Z,15.12
2022-12-31T08:48:11.417Z,15.15
2022-12-31T08:49:11.993Z,15.23
2022-12-31T08:50:11.386Z,15.26
2022-12-31T08:51:11.376Z,15.22
2022-12-31T08:52:11.416Z,15.25
2022-12-31T08:53:11.353Z,15.29
2022-12-31T08:54:11.372Z,15.36
2022-12-31T08:55:11.428Z,15.30
2022-12-31T08:56:11.331Z,15.23
2022-12-31T08:57:11.301Z,15.15
2022-12-31T08:58:11.340Z,15.08
2022-12-31T08:59:11.560Z,14.97
2022-12-31T09:00:11.295Z,14.90
2022-12-31T09:01:11.695Z,14.86
2022-12-31T09:02:11.314Z,14.73
2022-12-31T09:03:11.260Z,14.71
2022-12-31T09:04:11.381Z,14.69
2022-12-31T09:05:11.221Z,14.69
2022-12-31T09:06:11.223Z,14.78
2022-12-31T09:07:11.198Z,14.83
2022-12-31T09:08:11.219Z,15.01
2022-12-31T09:09:11.261Z,14.99
2022-12-31T09:10:11.318Z,14.93
2022-12-31T09:11:11.167Z,15.01
2022-12-31T09:12:11.179Z,15.14
2022-12-31T09:13:11.270Z,15.17
2022-12-31T09:14:11.149Z,15.32
2022-12-31T09:15:11.128Z,15.32
2022-12-31T09:16:11.145Z,15.38
2022-12-31T09:17:11.098Z,15.40
2022-12-31T09:18:11.104Z,15.33
2022-12-31T09:19:11.112Z,15.38
2022-12-31T09:20:11.095Z,15.50
2022-12-31T09:21:11.071Z,15.56
2022-12-31T09:22:11.067Z,15.56
2022-12-31T09:23:11.153Z,15.48
2022-12-31T09:24:11.036Z,15.45
2022-12-31T09:25:11.017Z,15.48
2022-12-31T09:26:11.040Z,15.50
2022-12-31T09:27:11.028Z,15.47
2022-12-31T09:28:11.000Z,15.47
2022-12-31T09:29:10.970Z,15.48
2022-12-31T09:30:11.018Z,15.44
2022-12-31T09:31:10.944Z,15.47
2022-12-31T09:32:10.967Z,15.63
2022-12-31T09:33:10.969Z,15.73
2022-12-31T09:34:10.924Z,15.76
2022-12-31T09:35:10.925Z,15.69
2022-12-31T09:36:10.990Z,15.69
2022-12-31T09:37:10.880Z,15.73
2022-12-31T09:38:11.777Z,15.76
2022-12-31T09:39:10.877Z,15.78
2022-12-31T09:40:10.873Z,15.80
2022-12-31T09:41:10.876Z,15.81
2022-12-31T09:42:10.861Z,15.77
2022-12-31T09:43:10.845Z,15.73
2022-12-31T09:44:10.843Z,15.76
2022-12-31T09:45:10.826Z,15.80
2022-12-31T09:46:10.843Z,15.81
2022-12-31T09:47:10.798Z,15.78
2022-12-31T09:48:10.823Z,15.77
2022-12-31T09:49:10.876Z,15.81
2022-12-31T09:50:10.757Z,15.83
2022-12-31T09:51:10.778Z,15.87
2022-12-31T09:52:10.742Z,15.85
2022-12-31T09:53:10.724Z,15.81
2022-12-31T09:54:10.708Z,15.83
2022-12-31T09:55:10.754Z,15.88
2022-12-31T09:56:10.801Z,15.96
2022-12-31T09:57:10.674Z,16.06
2022-12-31T09:58:10.683Z,16.02
2022-12-31T09:59:10.673Z,15.96
2022-12-31T10:00:10.861Z,15.93
2022-12-31T10:01:10.912Z,15.87
2022-12-31T10:02:10.949Z,15.83
2022-12-31T10:03:10.671Z,15.77
2022-12-31T10:04:10.631Z,15.68
2022-12-31T10:05:10.627Z,15.60
2022-12-31T10:06:10.611Z,15.52
2022-12-31T10:07:10.584Z,15.43
2022-12-31T10:08:10.757Z,15.40
2022-12-31T10:09:10.552Z,15.38
2022-12-31T10:10:10.545Z,15.36
2022-12-31T10:11:10.569Z,15.36
2022-12-31T10:12:10.548Z,15.40
2022-12-31T10:13:10.525Z,15.41
2022-12-31T10:14:10.553Z,15.48
2022-12-31T10:15:10.533Z,15.51
2022-12-31T10:16:10.533Z,15.48
2022-12-31T10:17:10.493Z,15.47
2022-12-31T10:18:10.462Z,15.43
2022-12-31T10:19:10.460Z,15.38
2022-12-31T10:20:10.476Z,15.35
2022-12-31T10:21:10.449Z,15.38
2022-12-31T10:22:10.447Z,15.36
2022-12-31T10:23:10.437Z,15.48
2022-12-31T10:24:10.415Z,15.56
2022-12-31T10:25:10.395Z,15.62
2022-12-31T10:26:10.422Z,15.72
2022-12-31T10:27:10.428Z,15.77
2022-12-31T10:28:10.372Z,15.81
2022-12-31T10:29:10.349Z,15.83
2022-12-31T10:30:10.343Z,15.81
2022-12-31T10:31:10.360Z,15.80
2022-12-31T10:32:10.347Z,15.80
2022-12-31T10:33:10.382Z,15.70
2022-12-31T10:34:10.310Z,15.65
2022-12-31T10:35:10.290Z,15.59
2022-12-31T10:36:10.369Z,15.56
2022-12-31T10:37:10.289Z,15.50
2022-12-31T10:38:10.272Z,15.32
2022-12-31T10:39:14.486Z,15.12
2022-12-31T10:40:10.259Z,14.99
2022-12-31T10:41:10.317Z,14.89
2022-12-31T10:42:10.232Z,14.82
2022-12-31T10:43:10.236Z,14.74
2022-12-31T10:44:10.190Z,14.69
2022-12-31T10:45:10.177Z,14.63
2022-12-31T10:46:10.218Z,14.56
2022-12-31T10:47:10.181Z,14.55
2022-12-31T10:48:10.168Z,14.53
2022-12-31T10:49:10.175Z,14.53
2022-12-31T10:50:10.144Z,14.52
2022-12-31T10:51:10.117Z,14.53
2022-12-31T10:52:10.124Z,14.55
2022-12-31T10:53:10.128Z,14.53
2022-12-31T10:54:10.094Z,14.52
2022-12-31T10:55:10.132Z,14.51
2022-12-31T10:56:10.132Z,14.51
2022-12-31T10:57:10.050Z,14.48
2022-12-31T10:58:10.067Z,14.48
2022-12-31T10:59:10.060Z,14.51
2022-12-31T11:00:10.034Z,14.52
2022-12-31T11:01:10.201Z,14.55
2022-12-31T11:02:10.212Z,14.58
2022-12-31T11:03:10.056Z,14.61
2022-12-31T11:04:10.025Z,14.59
2022-12-31T11:05:09.971Z,14.61
2022-12-31T11:06:10.070Z,14.70
2022-12-31T11:07:09.969Z,14.77
2022-12-31T11:08:09.947Z,14.78
2022-12-31T11:09:09.947Z,14.89
2022-12-31T11:10:09.944Z,14.93
2022-12-31T11:11:09.935Z,14.97
2022-12-31T11:12:09.911Z,15.03
2022-12-31T11:13:09.889Z,15.08
2022-12-31T11:14:09.964Z,15.07
2022-12-31T11:15:10.086Z,15.11
2022-12-31T11:16:09.945Z,15.08
2022-12-31T11:17:09.885Z,15.08
2022-12-31T11:18:09.843Z,15.08
2022-12-31T11:19:09.848Z,15.10
2022-12-31T11:20:09.879Z,15.15
2022-12-31T11:21:09.838Z,15.19
2022-12-31T11:22:09.812Z,15.15
2022-12-31T11:23:09.815Z,15.26
2022-12-31T11:24:09.807Z,15.29
2022-12-31T11:25:09.797Z,15.25
2022-12-31T11:26:09.764Z,15.25
2022-12-31T11:27:09.897Z,15.32
2022-12-31T11:28:09.760Z,15.44
2022-12-31T11:29:09.760Z,15.40
2022-12-31T11:30:09.747Z,15.41
2022-12-31T11:31:09.984Z,15.48
2022-12-31T11:32:09.715Z,15.52
2022-12-31T11:33:09.700Z,15.56
2022-12-31T11:34:09.712Z,15.56
2022-12-31T11:35:09.673Z,15.60
2022-12-31T11:36:09.667Z,15.58
2022-12-31T11:37:09.649Z,15.54
2022-12-31T11:38:09.757Z,15.54
2022-12-31T11:39:09.620Z,15.50
2022-12-31T11:40:09.622Z,15.47
2022-12-31T11:41:09.609Z,15.44
2022-12-31T11:42:09.618Z,15.43
2022-12-31T11:43:09.604Z,15.44
2022-12-31T11:44:09.593Z,15.41
2022-12-31T11:45:09.590Z,15.40
2022-12-31T11:46:09.584Z,15.41
2022-12-31T11:47:09.539Z,15.41
2022-12-31T11:49:09.553Z,15.35
2022-12-31T11:50:09.527Z,15.33
2022-12-31T11:51:09.504Z,15.40
2022-12-31T11:52:09.531Z,15.47
2022-12-31T11:53:09.493Z,15.54
2022-12-31T11:54:17.184Z,15.59
2022-12-31T11:55:09.462Z,15.65
2022-12-31T11:56:09.502Z,15.69
2022-12-31T11:57:09.443Z,15.70
2022-12-31T11:58:09.437Z,15.72
2022-12-31T11:59:12.161Z,15.80
2022-12-31T12:00:09.428Z,15.81
2022-12-31T12:01:09.559Z,15.77
2022-12-31T12:02:09.428Z,15.76
2022-12-31T12:03:09.429Z,15.73
2022-12-31T12:04:09.459Z,15.73
2022-12-31T12:05:11.381Z,15.77
2022-12-31T12:06:09.366Z,15.80
2022-12-31T12:07:09.381Z,15.83
2022-12-31T12:08:09.389Z,15.90
2022-12-31T12:09:09.331Z,15.93
2022-12-31T12:10:09.320Z,15.99
2022-12-31T12:11:09.554Z,16.00
2022-12-31T12:12:09.317Z,16.00
2022-12-31T12:13:09.282Z,16.02
2022-12-31T12:14:09.476Z,16.03
2022-12-31T12:15:09.268Z,16.10
2022-12-31T12:16:09.376Z,16.14
2022-12-31T12:17:09.259Z,16.16
2022-12-31T12:18:09.264Z,16.13
2022-12-31T12:19:09.285Z,16.14
2022-12-31T12:20:09.216Z,16.14
2022-12-31T12:21:09.250Z,16.10
2022-12-31T12:22:09.211Z,16.06
2022-12-31T12:23:09.184Z,15.99
2022-12-31T12:24:09.176Z,15.98
2022-12-31T12:25:09.156Z,15.98
2022-12-31T12:26:09.240Z,15.98
2022-12-31T12:27:09.169Z,15.93
2022-12-31T12:28:09.144Z,16.03
2022-12-31T12:29:09.117Z,16.10
2022-12-31T12:30:09.092Z,16.08
2022-12-31T12:31:09.617Z,16.09
2022-12-31T12:32:09.195Z,16.13
2022-12-31T12:33:09.148Z,16.17
2022-12-31T12:34:09.112Z,16.22
2022-12-31T12:35:09.056Z,16.28
2022-12-31T12:36:09.068Z,16.33
2022-12-31T12:37:09.070Z,16.33
2022-12-31T12:38:09.001Z,16.32
2022-12-31T12:39:09.068Z,16.34
2022-12-31T12:40:08.991Z,16.34
2022-12-31T12:41:09.003Z,16.29
2022-12-31T12:42:09.082Z,16.32
2022-12-31T12:43:08.987Z,16.29
2022-12-31T12:44:09.207Z,16.26
2022-12-31T12:45:09.163Z,16.17
2022-12-31T12:46:08.924Z,16.05
2022-12-31T12:47:09.034Z,15.95
2022-12-31T12:48:08.953Z,15.88
2022-12-31T12:49:08.913Z,15.96
2022-12-31T12:50:08.903Z,16.08
2022-12-31T12:51:08.898Z,16.13
2022-12-31T12:52:08.876Z,16.17
2022-12-31T12:53:08.896Z,16.22